Weather at Sibu Airport

Public forecast

Using degrees Celsius for public forecast. Weather courtesy of forecast.io.

Current aviation weather report (METAR) for Sibu Airport

2022/12/07 23:00 (retrieved 34 minutes ago)

WBGS 072300Z 11006KT 9999 -RA FEW006 SCT016 24/24 Q1008

Aviation forecast (TAF) for Sibu Airport

2022/12/07 18:00 (retrieved 6 hours ago)

TAF WBGS 071700Z 0718/0818 VRB03KT 9999 SCT018 TEMPO 0718/0722 6000 RA FEW005 FEW015CB TEMPO 0807/0811 3000 TSRA FEW015CB SCT016